Time;durP1;ratioP1;P1;durP2;ratioP2;P2;SDS_P1;SDS_P2;PMS_P1;PMS_P2;Temp;Humidity;BMP_temperature;BMP_pressure;BME280_temperature;BME280_humidity;BME280_pressure;Samples;Min_cycle;Max_cycle;Signal;HPM_P1;HPM_P2
2023/03/19 00:02:17;;;;;;;32.65;19.77;;;9.70;99.90;;;;;;5104058;27;20039;-67
2023/03/19 00:04:43;;;;;;;26.55;17.92;;;9.70;99.90;;;;;;5103402;27;20039;-67
2023/03/19 00:07:09;;;;;;;26.70;17.90;;;9.70;99.90;;;;;;5104392;27;20047;-67
2023/03/19 00:09:34;;;;;;;26.73;16.70;;;9.70;99.90;;;;;;5098893;28;20034;-67
2023/03/19 00:12:00;;;;;;;24.48;16.38;;;9.70;99.90;;;;;;5103068;28;20454;-67
2023/03/19 00:14:25;;;;;;;23.75;16.05;;;9.70;99.90;;;;;;5100439;28;20158;-67
2023/03/19 00:16:51;;;;;;;23.80;16.52;;;9.80;99.90;;;;;;5103910;28;20035;-67
2023/03/19 00:19:16;;;;;;;25.77;15.63;;;9.80;99.90;;;;;;5100788;28;20515;-67
2023/03/19 00:21:42;;;;;;;21.75;15.48;;;9.80;99.90;;;;;;5100563;28;20500;-67
2023/03/19 00:24:08;;;;;;;22.98;15.07;;;9.80;99.90;;;;;;5102047;27;20131;-67
2023/03/19 00:26:35;;;;;;;25.35;16.45;;;9.80;99.90;;;;;;5106387;28;20043;-67
2023/03/19 00:29:01;;;;;;;26.05;15.50;;;9.80;99.90;;;;;;5102547;27;20167;-66
2023/03/19 00:31:28;;;;;;;24.67;15.52;;;9.80;99.90;;;;;;5104787;28;20046;-67
2023/03/19 00:33:56;;;;;;;20.20;14.65;;;9.90;99.90;;;;;;5106666;27;20123;-67
2023/03/19 00:36:24;;;;;;;21.63;15.05;;;9.90;99.90;;;;;;5111194;27;20051;-67
2023/03/19 00:38:50;;;;;;;21.83;15.32;;;9.80;99.90;;;;;;5108852;27;20488;-67
2023/03/19 00:41:17;;;;;;;24.55;16.10;;;9.90;99.90;;;;;;5109000;27;20447;-67
2023/03/19 00:43:42;;;;;;;25.75;16.00;;;9.90;99.90;;;;;;5107491;27;20039;-67
2023/03/19 00:46:08;;;;;;;24.35;15.90;;;9.90;99.90;;;;;;5103372;27;20066;-66
2023/03/19 00:48:34;;;;;;;22.88;16.20;;;9.80;99.90;;;;;;5109743;27;20046;-67
2023/03/19 00:51:04;;;;;;;24.92;16.08;;;9.80;99.90;;;;;;5102148;27;20046;-66
2023/03/19 00:53:29;;;;;;;22.33;15.60;;;9.90;99.90;;;;;;5109430;27;20385;-67
2023/03/19 00:55:55;;;;;;;23.35;15.15;;;9.90;99.90;;;;;;5106509;27;20035;-67
2023/03/19 00:58:20;;;;;;;23.05;15.40;;;9.90;99.90;;;;;;5105999;27;20043;-67
2023/03/19 01:00:47;;;;;;;21.95;15.18;;;9.90;99.90;;;;;;5103489;27;20039;-67
2023/03/19 01:03:13;;;;;;;20.50;15.10;;;10.00;99.90;;;;;;5091167;27;20359;-67
2023/03/19 01:05:39;;;;;;;20.15;14.30;;;9.90;99.90;;;;;;5105866;27;20035;-67
2023/03/19 01:08:04;;;;;;;21.27;14.40;;;10.00;99.90;;;;;;5109388;27;20044;-67
2023/03/19 01:10:32;;;;;;;23.48;14.23;;;9.90;99.90;;;;;;5105350;27;20033;-67
2023/03/19 01:12:58;;;;;;;23.20;14.52;;;10.00;99.90;;;;;;5105540;27;20128;-67
2023/03/19 01:15:23;;;;;;;22.27;14.15;;;9.90;99.90;;;;;;5107084;27;20488;-67
2023/03/19 01:17:49;;;;;;;17.58;12.32;;;10.00;99.90;;;;;;5108845;27;20082;-67
2023/03/19 01:20:17;;;;;;;20.67;11.43;;;10.00;99.90;;;;;;5106772;27;20124;-66
2023/03/19 01:22:44;;;;;;;12.68;9.93;;;10.00;99.90;;;;;;5107263;27;20495;-67
2023/03/19 01:25:12;;;;;;;11.57;7.88;;;10.00;99.90;;;;;;5104353;27;20042;-67
2023/03/19 01:27:39;;;;;;;8.98;6.57;;;9.90;99.90;;;;;;5108293;27;20027;-68
2023/03/19 01:30:06;;;;;;;8.95;6.45;;;10.00;99.90;;;;;;5104421;27;20035;-67
2023/03/19 01:32:32;;;;;;;8.07;5.78;;;9.90;99.90;;;;;;5119473;27;20043;-67
2023/03/19 01:34:57;;;;;;;8.13;5.72;;;9.90;99.90;;;;;;5110645;27;20512;-67
2023/03/19 01:37:23;;;;;;;7.47;5.07;;;10.00;99.90;;;;;;5109822;27;20548;-68
2023/03/19 01:39:49;;;;;;;7.00;4.90;;;9.90;99.90;;;;;;5107518;27;21437;-67
2023/03/19 01:42:14;;;;;;;8.63;5.28;;;10.00;99.90;;;;;;5104483;27;20067;-67
2023/03/19 01:44:40;;;;;;;7.18;4.88;;;10.00;99.90;;;;;;5105930;27;20039;-67
2023/03/19 01:47:21;;;;;;;8.50;5.00;;;9.90;99.90;;;;;;5100687;27;20072;-67
2023/03/19 01:49:52;;;;;;;7.32;4.60;;;10.00;99.90;;;;;;5108521;27;20709;-66
2023/03/19 01:52:18;;;;;;;6.82;4.68;;;10.00;99.90;;;;;;5108512;27;20044;-66
2023/03/19 01:54:44;;;;;;;5.93;3.88;;;10.00;99.90;;;;;;5108094;27;20358;-67
2023/03/19 01:57:13;;;;;;;6.60;4.30;;;10.00;99.90;;;;;;5092805;27;20203;-67
2023/03/19 01:59:42;;;;;;;5.93;4.20;;;10.00;99.90;;;;;;5091191;27;20490;-66
2023/03/19 02:02:28;;;;;;;6.25;4.32;;;10.00;99.90;;;;;;5108799;27;20058;-67
2023/03/19 02:04:59;;;;;;;7.32;5.03;;;9.90;99.90;;;;;;5106386;27;20489;-67
2023/03/19 02:07:28;;;;;;;5.43;4.23;;;9.90;99.90;;;;;;5108440;27;20091;-67
2023/03/19 02:09:54;;;;;;;6.20;4.28;;;9.80;99.90;;;;;;5103605;27;20031;-67
2023/03/19 02:12:19;;;;;;;6.93;4.13;;;9.90;99.90;;;;;;5111232;27;20032;-66
2023/03/19 02:14:45;;;;;;;6.40;4.18;;;9.90;99.90;;;;;;5107234;27;20493;-67
2023/03/19 02:17:11;;;;;;;5.38;4.25;;;9.80;99.90;;;;;;5104594;27;20083;-66
2023/03/19 02:19:51;;;;;;;6.15;3.92;;;9.80;99.90;;;;;;5110487;27;20061;-67
2023/03/19 02:22:20;;;;;;;5.60;4.00;;;9.80;99.90;;;;;;5104395;27;20486;-67
2023/03/19 02:24:54;;;;;;;5.63;3.90;;;9.80;99.90;;;;;;5108531;27;20031;-66
2023/03/19 02:27:20;;;;;;;4.75;4.00;;;9.90;99.90;;;;;;5103975;27;20039;-67
2023/03/19 02:29:46;;;;;;;8.52;3.95;;;9.90;99.90;;;;;;5106450;27;20371;-66
2023/03/19 02:32:11;;;;;;;6.43;4.10;;;9.90;99.90;;;;;;5108180;27;20051;-67
2023/03/19 02:34:42;;;;;;;5.85;3.70;;;10.00;99.90;;;;;;5107421;27;20039;-67
2023/03/19 02:37:20;;;;;;;4.72;3.78;;;10.00;99.90;;;;;;5106626;27;20039;-66
2023/03/19 02:39:54;;;;;;;7.25;3.88;;;9.90;99.90;;;;;;5107956;27;20523;-67
2023/03/19 02:42:21;;;;;;;8.38;4.10;;;10.00;99.90;;;;;;5108150;27;20043;-66
2023/03/19 02:44:47;;;;;;;7.35;4.10;;;9.90;99.90;;;;;;5102805;27;20053;-66
2023/03/19 02:47:13;;;;;;;5.90;3.90;;;10.00;99.90;;;;;;5109294;27;20035;-66
2023/03/19 02:49:39;;;;;;;7.07;3.72;;;9.90;99.90;;;;;;5108730;27;20119;-67
2023/03/19 02:52:04;;;;;;;6.13;3.63;;;9.90;99.90;;;;;;5109881;27;20115;-67
2023/03/19 02:54:30;;;;;;;6.28;3.95;;;9.90;99.90;;;;;;5105448;27;20047;-66
2023/03/19 02:56:55;;;;;;;7.50;4.20;;;9.80;99.90;;;;;;5108233;27;20119;-67
2023/03/19 02:59:21;;;;;;;5.30;3.70;;;9.80;99.90;;;;;;5088776;27;20122;-66
2023/03/19 03:01:46;;;;;;;5.18;3.92;;;9.80;99.90;;;;;;5114814;27;20035;-66
2023/03/19 03:04:15;;;;;;;6.75;4.10;;;9.80;99.90;;;;;;5108989;27;20491;-66
2023/03/19 03:06:41;;;;;;;5.72;3.92;;;9.70;99.90;;;;;;5102507;27;20409;-66
2023/03/19 03:09:06;;;;;;;6.15;4.30;;;9.60;99.90;;;;;;5101569;27;20050;-66
2023/03/19 03:11:32;;;;;;;5.85;3.80;;;9.70;99.90;;;;;;5102347;27;20035;-66
2023/03/19 03:13:57;;;;;;;6.68;4.40;;;9.70;99.90;;;;;;5108591;27;20050;-66
2023/03/19 03:16:24;;;;;;;5.25;3.80;;;9.60;99.90;;;;;;5104399;27;20448;-66
2023/03/19 03:18:50;;;;;;;7.03;4.40;;;9.70;99.90;;;;;;5105812;27;20071;-66
2023/03/19 03:21:18;;;;;;;6.65;4.07;;;9.70;99.90;;;;;;5104182;27;20139;-66
2023/03/19 03:23:44;;;;;;;6.47;4.40;;;9.70;99.90;;;;;;5101603;27;20027;-66
2023/03/19 03:26:11;;;;;;;6.28;4.45;;;9.80;99.90;;;;;;5102893;27;20046;-67
2023/03/19 03:28:36;;;;;;;6.55;4.22;;;9.80;99.90;;;;;;5106449;27;20039;-65
2023/03/19 03:31:02;;;;;;;6.13;4.35;;;9.80;99.90;;;;;;5105205;27;20494;-66
2023/03/19 03:33:28;;;;;;;6.78;4.32;;;9.80;99.90;;;;;;5104269;27;20042;-66
2023/03/19 03:35:54;;;;;;;8.05;4.50;;;9.90;99.90;;;;;;5104168;27;20431;-66
2023/03/19 03:38:20;;;;;;;6.72;4.53;;;9.90;99.90;;;;;;5105633;27;20124;-66
2023/03/19 03:40:51;;;;;;;10.63;5.30;;;9.80;99.90;;;;;;5103643;27;20023;-65
2023/03/19 03:43:18;;;;;;;8.75;5.72;;;9.90;99.90;;;;;;5103072;27;20035;-66
2023/03/19 03:45:43;;;;;;;6.20;4.95;;;10.00;99.90;;;;;;5102783;27;20027;-65
2023/03/19 03:48:09;;;;;;;7.28;4.82;;;10.00;99.90;;;;;;5103956;27;20622;-66
2023/03/19 03:50:35;;;;;;;8.32;4.93;;;10.00;99.90;;;;;;5102335;27;20031;-66
2023/03/19 03:53:01;;;;;;;7.97;5.30;;;10.00;99.90;;;;;;5103615;28;20162;-66
2023/03/19 03:55:27;;;;;;;7.65;4.75;;;9.90;99.90;;;;;;5106796;27;20125;-67
2023/03/19 03:57:53;;;;;;;12.35;5.97;;;10.00;99.90;;;;;;5106284;27;20117;-66
2023/03/19 04:00:19;;;;;;;7.53;5.32;;;10.00;99.90;;;;;;5103411;27;20070;-66
2023/03/19 04:02:45;;;;;;;8.27;5.00;;;10.00;99.90;;;;;;5106813;27;20031;-66
2023/03/19 04:05:10;;;;;;;11.10;5.72;;;9.80;99.90;;;;;;5104180;27;20063;-66
2023/03/19 04:07:37;;;;;;;8.10;5.57;;;9.90;99.90;;;;;;5104592;28;20130;-67
2023/03/19 04:10:03;;;;;;;7.68;4.93;;;9.80;99.90;;;;;;5105107;27;20044;-66
2023/03/19 04:12:28;;;;;;;10.60;5.55;;;9.80;99.90;;;;;;5116141;27;20062;-66
2023/03/19 04:14:54;;;;;;;8.85;5.75;;;9.70;99.90;;;;;;5105173;28;20039;-67
2023/03/19 04:17:20;;;;;;;9.57;5.95;;;9.60;99.90;;;;;;5104644;28;20050;-67
2023/03/19 04:19:45;;;;;;;7.50;5.57;;;9.50;99.90;;;;;;5104664;28;20569;-66
2023/03/19 04:22:11;;;;;;;9.68;6.35;;;9.50;99.90;;;;;;5104535;28;20164;-66
2023/03/19 04:24:37;;;;;;;8.65;5.70;;;9.50;99.90;;;;;;5088951;28;20054;-67
2023/03/19 04:27:02;;;;;;;10.68;6.85;;;9.40;99.90;;;;;;5103332;28;20046;-66
2023/03/19 04:29:28;;;;;;;9.40;6.15;;;9.30;99.90;;;;;;5101818;28;20458;-67
2023/03/19 04:31:53;;;;;;;10.15;6.40;;;9.30;99.90;;;;;;5102183;28;20090;-67
2023/03/19 04:34:20;;;;;;;11.25;6.72;;;9.30;99.90;;;;;;5100821;28;20534;-66
2023/03/19 04:36:46;;;;;;;10.98;6.07;;;9.20;99.90;;;;;;5091044;28;20039;-67
2023/03/19 04:39:11;;;;;;;8.02;5.93;;;9.20;99.90;;;;;;5102269;28;20039;-68
2023/03/19 04:41:37;;;;;;;11.10;5.88;;;9.10;99.90;;;;;;5104959;28;20050;-67
2023/03/19 04:44:03;;;;;;;9.88;6.30;;;9.20;99.90;;;;;;5102243;28;20127;-67
2023/03/19 04:46:28;;;;;;;10.80;6.38;;;9.10;99.90;;;;;;5103310;28;20131;-67
2023/03/19 04:48:54;;;;;;;10.15;6.28;;;9.10;99.90;;;;;;5104335;28;20191;-67
2023/03/19 04:51:20;;;;;;;10.50;6.22;;;8.90;99.90;;;;;;5101101;27;20465;-66
2023/03/19 04:53:46;;;;;;;10.00;5.88;;;8.90;99.90;;;;;;5102171;28;20056;-67
2023/03/19 04:56:15;;;;;;;9.18;5.75;;;8.80;99.90;;;;;;5103597;28;20685;-67
2023/03/19 04:58:41;;;;;;;10.40;6.30;;;8.90;99.90;;;;;;5103903;28;20043;-67
2023/03/19 05:01:06;;;;;;;10.93;6.53;;;8.80;99.90;;;;;;5105870;28;20482;-67
2023/03/19 05:03:32;;;;;;;11.85;6.25;;;8.80;99.90;;;;;;5103961;28;20034;-66
2023/03/19 05:05:58;;;;;;;13.15;6.28;;;8.80;99.90;;;;;;5097828;27;20039;-67
2023/03/19 05:08:23;;;;;;;9.82;6.60;;;8.70;99.90;;;;;;5100588;28;20046;-66
2023/03/19 05:10:49;;;;;;;13.90;6.55;;;8.70;99.90;;;;;;5102614;27;20493;-67
2023/03/19 05:13:15;;;;;;;9.95;6.15;;;8.60;99.90;;;;;;5119240;27;20031;-66
2023/03/19 05:15:42;;;;;;;10.80;6.80;;;8.70;99.90;;;;;;5105176;27;20478;-66
2023/03/19 05:18:07;;;;;;;9.20;6.43;;;8.50;99.90;;;;;;5100707;27;20405;-67
2023/03/19 05:20:33;;;;;;;8.68;6.72;;;8.50;99.90;;;;;;5107478;27;20040;-66
2023/03/19 05:22:59;;;;;;;10.50;6.78;;;8.40;99.90;;;;;;5112256;27;20039;-67
2023/03/19 05:25:24;;;;;;;11.38;6.93;;;8.40;99.90;;;;;;5109783;27;20117;-67
2023/03/19 05:27:50;;;;;;;15.30;7.63;;;8.30;99.90;;;;;;5090990;27;20067;-66
2023/03/19 05:30:17;;;;;;;11.00;6.50;;;8.30;99.90;;;;;;5109665;27;20072;-67
2023/03/19 05:32:43;;;;;;;10.93;6.10;;;8.20;99.90;;;;;;5087789;27;20134;-66
2023/03/19 05:35:08;;;;;;;9.48;6.70;;;8.20;99.90;;;;;;5108807;27;20065;-67
2023/03/19 05:37:34;;;;;;;7.55;5.47;;;8.00;99.90;;;;;;5104216;27;20039;-67
2023/03/19 05:39:59;;;;;;;8.32;5.75;;;8.00;99.90;;;;;;5107761;27;20500;-67
2023/03/19 05:42:25;;;;;;;7.93;5.68;;;8.00;99.90;;;;;;5106176;27;20047;-67
2023/03/19 05:44:50;;;;;;;8.15;5.85;;;8.00;99.90;;;;;;5111049;27;20070;-66
2023/03/19 05:47:16;;;;;;;8.27;5.65;;;7.90;99.90;;;;;;5107486;27;20111;-67
2023/03/19 05:49:42;;;;;;;10.02;6.05;;;7.90;99.90;;;;;;5090042;27;20024;-66
2023/03/19 05:52:07;;;;;;;9.52;6.30;;;7.80;99.90;;;;;;5107129;27;20039;-67
2023/03/19 05:54:33;;;;;;;9.50;6.45;;;7.80;99.90;;;;;;5109963;27;20031;-66
2023/03/19 05:56:59;;;;;;;8.55;6.07;;;7.80;99.90;;;;;;5104566;27;20553;-66
2023/03/19 05:59:24;;;;;;;9.73;6.32;;;7.70;99.90;;;;;;5087571;27;20035;-67
2023/03/19 06:01:50;;;;;;;10.52;6.65;;;7.70;99.90;;;;;;5106273;27;20073;-67
2023/03/19 06:04:16;;;;;;;9.40;7.20;;;7.80;99.90;;;;;;5105826;27;20386;-66
2023/03/19 06:06:41;;;;;;;13.80;7.60;;;7.70;99.90;;;;;;5106606;27;20039;-66
2023/03/19 06:09:07;;;;;;;9.63;6.95;;;7.70;99.90;;;;;;5102863;27;20048;-66
2023/03/19 06:11:33;;;;;;;11.52;6.93;;;7.60;99.90;;;;;;5106267;27;20054;-66
2023/03/19 06:13:58;;;;;;;13.57;8.30;;;7.70;99.90;;;;;;5104460;27;20043;-66
2023/03/19 06:16:24;;;;;;;12.05;7.68;;;7.60;99.90;;;;;;5108104;27;20076;-66
2023/03/19 06:18:50;;;;;;;11.68;7.60;;;7.60;99.90;;;;;;5103840;27;20122;-66
2023/03/19 06:21:16;;;;;;;12.32;7.50;;;7.60;99.90;;;;;;5105707;27;20051;-66
2023/03/19 06:23:41;;;;;;;12.50;7.65;;;7.60;99.90;;;;;;5089383;27;20043;-66
2023/03/19 06:26:07;;;;;;;12.48;7.57;;;7.60;99.90;;;;;;5107813;27;20524;-66
2023/03/19 06:28:32;;;;;;;12.35;7.50;;;7.60;99.90;;;;;;5104000;27;20031;-66
2023/03/19 06:30:58;;;;;;;12.57;7.40;;;7.70;99.90;;;;;;5089456;27;20035;-66
2023/03/19 06:33:26;;;;;;;13.15;8.68;;;7.60;99.90;;;;;;5102718;27;20130;-66
2023/03/19 06:35:52;;;;;;;13.50;8.63;;;7.60;99.90;;;;;;5107101;27;20107;-66
2023/03/19 06:38:18;;;;;;;13.68;8.63;;;7.60;99.90;;;;;;5104203;27;20023;-66
2023/03/19 06:40:43;;;;;;;15.82;8.93;;;7.60;99.90;;;;;;5087585;27;20087;-66
2023/03/19 06:43:09;;;;;;;14.20;8.63;;;7.70;99.90;;;;;;5104249;27;20493;-67
2023/03/19 06:45:35;;;;;;;15.73;9.45;;;7.70;99.90;;;;;;5107033;27;20610;-66
2023/03/19 06:48:00;;;;;;;16.83;9.45;;;7.70;99.90;;;;;;5106861;27;20031;-66
2023/03/19 06:50:26;;;;;;;14.73;9.43;;;7.80;99.90;;;;;;5111442;27;20535;-66
2023/03/19 06:52:52;;;;;;;18.58;9.35;;;7.90;99.90;;;;;;5112705;27;20043;-66
2023/03/19 06:55:19;;;;;;;15.70;9.82;;;8.00;99.90;;;;;;5108400;27;20038;-67
2023/03/19 06:57:50;;;;;;;15.60;9.40;;;8.00;99.90;;;;;;5098226;28;20079;-66
2023/03/19 07:00:17;;;;;;;15.88;9.80;;;8.10;99.90;;;;;;5112850;27;20043;-67
2023/03/19 07:02:42;;;;;;;17.48;10.07;;;8.10;99.90;;;;;;5103725;28;20047;-67
2023/03/19 07:05:08;;;;;;;17.52;9.95;;;8.20;99.90;;;;;;5109496;27;20042;-67
2023/03/19 07:07:34;;;;;;;18.15;11.38;;;8.30;99.90;;;;;;5109555;27;20481;-67
2023/03/19 07:10:00;;;;;;;17.17;10.88;;;8.50;99.90;;;;;;5111558;27;20071;-67
2023/03/19 07:12:28;;;;;;;17.40;10.35;;;8.50;99.90;;;;;;5108337;27;20047;-66
2023/03/19 07:14:57;;;;;;;19.27;11.20;;;8.60;99.90;;;;;;5110991;28;20048;-67
2023/03/19 07:17:23;;;;;;;15.57;10.32;;;8.70;99.90;;;;;;5110024;27;20043;-66
2023/03/19 07:19:49;;;;;;;18.25;11.50;;;8.80;99.90;;;;;;5107525;27;20764;-66
2023/03/19 07:22:15;;;;;;;14.52;10.27;;;9.00;99.90;;;;;;5111077;27;20043;-66
2023/03/19 07:24:42;;;;;;;17.45;11.07;;;9.10;99.90;;;;;;5104004;27;20477;-67
2023/03/19 07:27:07;;;;;;;20.33;12.23;;;9.40;99.90;;;;;;5104070;27;20054;-67
2023/03/19 07:29:33;;;;;;;19.55;11.82;;;9.40;99.90;;;;;;5105562;27;20035;-67
2023/03/19 07:31:59;;;;;;;18.80;12.38;;;9.50;99.90;;;;;;5104804;27;20087;-66
2023/03/19 07:34:25;;;;;;;18.08;11.18;;;9.60;99.90;;;;;;5106357;27;20042;-66
2023/03/19 07:36:51;;;;;;;19.85;11.70;;;9.60;99.90;;;;;;5101864;27;20030;-67
2023/03/19 07:39:18;;;;;;;18.88;11.90;;;9.70;99.90;;;;;;5102827;27;20520;-66
2023/03/19 07:41:46;;;;;;;18.08;12.05;;;9.70;99.90;;;;;;5103702;27;20413;-66
2023/03/19 07:44:11;;;;;;;21.67;12.70;;;9.80;99.90;;;;;;5086180;27;20072;-66
2023/03/19 07:46:37;;;;;;;19.15;13.00;;;10.00;99.90;;;;;;5104546;27;20670;-65
2023/03/19 07:49:03;;;;;;;21.02;13.60;;;10.00;99.90;;;;;;5088302;27;20057;-66
2023/03/19 07:51:28;;;;;;;21.65;13.73;;;10.10;99.90;;;;;;5123978;27;20042;-66
2023/03/19 07:53:54;;;;;;;24.42;15.10;;;10.50;99.90;;;;;;5105026;27;20170;-66
2023/03/19 07:56:19;;;;;;;25.65;14.73;;;10.50;99.90;;;;;;5105970;27;20168;-66
2023/03/19 07:58:45;;;;;;;24.10;14.25;;;10.50;99.90;;;;;;5104162;27;20035;-66
2023/03/19 08:01:10;;;;;;;24.08;14.35;;;10.50;99.90;;;;;;5106985;27;20121;-66
2023/03/19 08:03:37;;;;;;;23.10;14.48;;;10.40;99.90;;;;;;5100706;27;20041;-66
2023/03/19 08:06:03;;;;;;;28.25;16.58;;;10.40;99.90;;;;;;5099864;27;20043;-66
2023/03/19 08:08:33;;;;;;;26.20;16.13;;;10.30;99.90;;;;;;5100158;28;20046;-65
2023/03/19 08:10:59;;;;;;;26.60;15.70;;;10.40;99.90;;;;;;5088801;27;20466;-66
2023/03/19 08:13:25;;;;;;;24.15;14.23;;;10.50;99.90;;;;;;5103298;28;20088;-66
2023/03/19 08:15:53;;;;;;;23.52;14.20;;;10.50;99.90;;;;;;5105592;28;20051;-65
2023/03/19 08:18:19;;;;;;;23.30;12.88;;;10.50;99.90;;;;;;5089455;28;20089;-67
2023/03/19 08:20:45;;;;;;;21.35;13.02;;;10.50;99.90;;;;;;5103580;28;20062;-66
2023/03/19 08:23:12;;;;;;;23.70;14.65;;;10.50;99.90;;;;;;5105169;28;20135;-66
2023/03/19 08:25:37;;;;;;;21.83;13.93;;;10.40;99.90;;;;;;5105204;28;20668;-67
2023/03/19 08:28:03;;;;;;;24.15;14.88;;;10.50;99.90;;;;;;5104141;28;20061;-67
2023/03/19 08:30:29;;;;;;;23.80;15.38;;;10.50;99.90;;;;;;5104667;28;20445;-67
2023/03/19 08:32:55;;;;;;;28.08;15.60;;;10.30;99.90;;;;;;5100075;27;20043;-67
2023/03/19 08:35:20;;;;;;;25.10;16.42;;;10.40;99.90;;;;;;5106065;28;20038;-66
2023/03/19 08:37:46;;;;;;;27.48;16.75;;;10.40;99.90;;;;;;5105288;27;20031;-65
2023/03/19 08:40:11;;;;;;;28.35;16.50;;;10.40;99.90;;;;;;5105611;28;20126;-66
2023/03/19 08:42:41;;;;;;;26.75;16.27;;;10.50;99.90;;;;;;5108813;27;20048;-66
2023/03/19 08:45:11;;;;;;;29.05;18.02;;;10.60;99.90;;;;;;5103532;28;20047;-66
2023/03/19 08:47:36;;;;;;;30.65;18.13;;;10.70;99.90;;;;;;5105717;28;20039;-66
2023/03/19 08:50:03;;;;;;;27.20;17.55;;;10.70;99.90;;;;;;5099039;28;20162;-66
2023/03/19 08:52:29;;;;;;;25.13;16.13;;;10.70;99.90;;;;;;5102855;28;20074;-66
2023/03/19 08:54:55;;;;;;;24.42;16.48;;;10.60;99.90;;;;;;5105210;27;20070;-65
2023/03/19 08:57:20;;;;;;;25.15;15.57;;;10.60;99.90;;;;;;5092249;27;20043;-65
2023/03/19 08:59:46;;;;;;;26.50;16.92;;;10.60;99.90;;;;;;5104398;27;20405;-66
2023/03/19 09:02:12;;;;;;;28.73;17.42;;;10.70;99.90;;;;;;5102805;27;20406;-66
2023/03/19 09:04:42;;;;;;;25.73;16.05;;;10.70;99.90;;;;;;5112092;27;20036;-66
2023/03/19 09:07:11;;;;;;;27.90;16.92;;;10.70;99.90;;;;;;5106531;27;20473;-67
2023/03/19 09:09:38;;;;;;;25.38;15.38;;;10.70;99.90;;;;;;5107400;27;20066;-66
2023/03/19 09:12:04;;;;;;;29.02;17.92;;;10.70;99.90;;;;;;5107293;27;20103;-65
2023/03/19 09:14:30;;;;;;;31.20;18.67;;;10.70;99.90;;;;;;5106378;27;20062;-65
2023/03/19 09:16:55;;;;;;;31.38;18.35;;;10.60;99.90;;;;;;5107575;27;20054;-65
2023/03/19 09:19:22;;;;;;;30.92;19.50;;;10.70;99.90;;;;;;5103469;27;20729;-66
2023/03/19 09:21:48;;;;;;;28.95;18.15;;;10.70;99.90;;;;;;5099405;27;20043;-67
2023/03/19 09:24:13;;;;;;;28.35;18.45;;;10.70;99.90;;;;;;5107020;27;20034;-67
2023/03/19 09:26:39;;;;;;;28.98;18.10;;;10.70;99.90;;;;;;5105472;27;20055;-66
2023/03/19 09:29:04;;;;;;;29.00;17.30;;;10.60;99.90;;;;;;5099372;27;20584;-65
2023/03/19 09:31:30;;;;;;;31.60;18.42;;;10.60;99.90;;;;;;5108120;27;20047;-66
2023/03/19 09:33:55;;;;;;;31.55;18.70;;;10.70;99.90;;;;;;5106543;27;20065;-65
2023/03/19 09:36:21;;;;;;;30.77;17.98;;;10.70;99.90;;;;;;5106612;27;20043;-65
2023/03/19 09:38:46;;;;;;;30.30;18.88;;;10.60;99.90;;;;;;5109026;27;20142;-65
2023/03/19 09:41:42;;;;;;;32.53;19.38;;;10.70;99.90;;;;;;5108022;27;20045;-65
2023/03/19 09:44:26;;;;;;;33.83;19.25;;;10.70;99.90;;;;;;5107143;27;20039;-65
2023/03/19 09:47:07;;;;;;;30.52;17.77;;;10.70;99.90;;;;;;5108171;27;20129;-66
2023/03/19 09:49:40;;;;;;;29.13;18.00;;;10.70;99.90;;;;;;5101505;27;20047;-65
2023/03/19 09:52:14;;;;;;;32.22;19.05;;;10.70;99.90;;;;;;5105976;27;20627;-65
2023/03/19 09:54:47;;;;;;;34.22;20.23;;;10.70;99.90;;;;;;5107380;27;20042;-66
2023/03/19 09:57:14;;;;;;;32.67;18.35;;;10.60;99.90;;;;;;5108592;27;20067;-67
2023/03/19 09:59:40;;;;;;;33.22;19.63;;;10.60;99.90;;;;;;5106993;27;20039;-66
2023/03/19 10:02:05;;;;;;;31.98;18.83;;;10.70;99.90;;;;;;5104282;27;20103;-66
2023/03/19 10:04:46;;;;;;;29.70;19.77;;;10.70;99.90;;;;;;5104546;27;20043;-66
2023/03/19 10:07:23;;;;;;;30.02;18.23;;;10.70;99.90;;;;;;5109342;27;20092;-66
2023/03/19 10:10:03;;;;;;;31.02;18.65;;;10.70;99.90;;;;;;5102438;27;20087;-66
2023/03/19 10:13:01;;;;;;;32.05;20.08;;;10.70;99.90;;;;;;5106583;27;20134;-65
2023/03/19 10:15:29;;;;;;;32.13;18.67;;;10.70;99.90;;;;;;5107494;27;20051;-66
2023/03/19 10:18:26;;;;;;;32.83;18.67;;;10.80;99.90;;;;;;5106037;27;20031;-66
2023/03/19 10:21:13;;;;;;;32.30;18.90;;;10.80;99.90;;;;;;5075700;27;20057;-66
2023/03/19 10:23:39;;;;;;;31.10;19.40;;;10.80;99.90;;;;;;5107617;27;20039;-65
2023/03/19 10:26:10;;;;;;;29.88;19.65;;;10.80;99.90;;;;;;5107987;27;20072;-67
2023/03/19 10:28:37;;;;;;;33.40;20.88;;;10.80;99.90;;;;;;5104351;27;20050;-65
2023/03/19 10:31:17;;;;;;;33.13;19.95;;;10.90;99.90;;;;;;5106768;27;20039;-66
2023/03/19 10:33:51;;;;;;;31.98;19.75;;;10.90;99.90;;;;;;5101769;27;20066;-66
2023/03/19 10:36:21;;;;;;;34.17;20.35;;;10.90;99.90;;;;;;5108417;27;20035;-66
2023/03/19 10:38:46;;;;;;;33.65;19.08;;;11.00;99.90;;;;;;5103624;27;20044;-66
2023/03/19 10:41:23;;;;;;;32.72;19.83;;;10.90;99.90;;;;;;5115943;27;20431;-66
2023/03/19 10:44:02;;;;;;;31.52;18.98;;;11.00;99.90;;;;;;5109393;27;20091;-67
2023/03/19 10:46:39;;;;;;;33.00;20.42;;;11.00;99.90;;;;;;5105864;27;20051;-67
2023/03/19 10:49:10;;;;;;;33.40;20.75;;;11.10;99.90;;;;;;5102825;27;20417;-67
2023/03/19 10:51:37;;;;;;;35.25;20.95;;;11.10;99.90;;;;;;5105764;27;20039;-67
2023/03/19 10:54:19;;;;;;;33.95;21.30;;;11.20;99.90;;;;;;5104174;27;20042;-67
2023/03/19 10:56:46;;;;;;;32.13;19.63;;;11.10;99.90;;;;;;5107137;27;20414;-66
2023/03/19 10:59:38;;;;;;;31.80;20.25;;;11.20;99.90;;;;;;5102386;27;20756;-65
2023/03/19 11:02:15;;;;;;;32.15;19.83;;;11.30;99.90;;;;;;5101026;27;20050;-66
2023/03/19 11:04:40;;;;;;;34.83;21.13;;;11.60;99.90;;;;;;5105278;27;20473;-66
2023/03/19 11:07:20;;;;;;;33.42;19.67;;;11.80;99.90;;;;;;5103994;27;21116;-66
2023/03/19 11:09:48;;;;;;;31.52;19.48;;;12.10;99.90;;;;;;5104675;27;20139;-66
2023/03/19 11:12:18;;;;;;;31.05;19.48;;;12.00;99.90;;;;;;5102155;27;20047;-66
2023/03/19 11:14:47;;;;;;;29.25;19.58;;;11.90;99.90;;;;;;5097453;27;20039;-67
2023/03/19 11:17:36;;;;;;;29.08;19.52;;;11.90;99.90;;;;;;5102942;27;20049;-66
2023/03/19 11:20:21;;;;;;;31.75;19.60;;;11.80;99.90;;;;;;5103021;27;20045;-66
2023/03/19 11:22:48;;;;;;;31.63;19.33;;;11.90;99.90;;;;;;5107067;27;20043;-66
2023/03/19 11:25:26;;;;;;;28.08;17.35;;;12.10;99.90;;;;;;5103142;27;20042;-67
2023/03/19 11:28:07;;;;;;;30.65;19.25;;;12.20;99.90;;;;;;5107271;27;20043;-66
2023/03/19 11:30:37;;;;;;;29.23;18.38;;;12.30;99.90;;;;;;5101567;27;20035;-66
2023/03/19 11:33:12;;;;;;;29.30;16.90;;;12.40;99.90;;;;;;5090769;27;20042;-67
2023/03/19 11:35:50;;;;;;;28.10;17.95;;;12.40;99.90;;;;;;5103712;27;20035;-66
2023/03/19 11:38:33;;;;;;;25.77;17.80;;;12.30;99.90;;;;;;5106675;27;20058;-66
2023/03/19 11:41:02;;;;;;;;;;;12.20;99.90;;;;;;5104559;27;20471;-66
2023/03/19 11:43:28;;;;;;;27.52;17.00;;;12.20;99.90;;;;;;5104065;27;20022;-66
2023/03/19 11:46:24;;;;;;;26.98;17.25;;;12.20;99.90;;;;;;5105650;27;20126;-65
2023/03/19 11:49:05;;;;;;;28.13;17.67;;;12.20;99.90;;;;;;5098797;27;20050;-66
2023/03/19 11:51:43;;;;;;;30.80;18.58;;;12.50;99.90;;;;;;5105225;27;20426;-67
2023/03/19 11:54:32;;;;;;;28.05;18.05;;;12.80;99.90;;;;;;5102613;27;20237;-67
2023/03/19 11:57:20;;;;;;;26.95;16.15;;;12.80;99.90;;;;;;5102558;27;20043;-67
2023/03/19 11:59:45;;;;;;;29.58;17.70;;;12.80;99.90;;;;;;5102327;28;20035;-66
2023/03/19 12:02:29;;;;;;;31.00;18.23;;;12.50;99.90;;;;;;5104684;27;20451;-67
2023/03/19 12:05:17;;;;;;;29.35;17.63;;;12.40;99.90;;;;;;5106390;27;20497;-69
2023/03/19 12:08:12;;;;;;;31.55;18.30;;;12.40;99.90;;;;;;5102234;27;20035;-66
2023/03/19 12:11:07;;;;;;;33.35;20.05;;;12.40;99.90;;;;;;5099062;27;20389;-68
2023/03/19 12:14:01;;;;;;;30.15;17.05;;;12.40;99.90;;;;;;5095917;27;20043;-66
2023/03/19 12:16:33;;;;;;;29.63;18.17;;;12.40;99.90;;;;;;5102569;28;20228;-67
2023/03/19 12:19:29;;;;;;;29.52;17.80;;;12.40;99.90;;;;;;5102204;28;20055;-66
2023/03/19 12:22:16;;;;;;;30.83;18.42;;;12.30;99.90;;;;;;5105095;28;20066;-66
2023/03/19 12:25:23;;;;;;;36.08;18.23;;;12.20;99.90;;;;;;5102792;28;20035;-66
2023/03/19 12:27:57;;;;;;;30.80;18.17;;;12.20;99.90;;;;;;5105491;27;20061;-66
2023/03/19 12:30:33;;;;;;;29.92;17.40;;;12.20;99.90;;;;;;5103240;27;20047;-67
2023/03/19 12:33:08;;;;;;;34.88;18.35;;;12.10;99.90;;;;;;5104855;27;20074;-68
2023/03/19 12:35:37;;;;;;;34.33;17.77;;;12.20;99.90;;;;;;5106269;27;20489;-67
2023/03/19 12:38:40;;;;;;;31.13;18.10;;;12.10;99.90;;;;;;5108633;27;20420;-67
2023/03/19 12:41:09;;;;;;;33.83;18.77;;;12.00;99.90;;;;;;5113155;27;20047;-67
2023/03/19 12:43:52;;;;;;;33.55;18.48;;;12.00;99.90;;;;;;5108514;27;20035;-67
2023/03/19 12:46:23;;;;;;;32.47;17.17;;;12.00;99.90;;;;;;5104545;27;20431;-67
2023/03/19 12:48:56;;;;;;;30.40;17.50;;;11.90;99.90;;;;;;5125866;27;20036;-68
2023/03/19 12:51:26;;;;;;;34.47;18.17;;;12.00;99.90;;;;;;5106126;27;20073;-67